Time;durP1;ratioP1;P1;durP2;ratioP2;P2;SDS_P1;SDS_P2;PMS_P1;PMS_P2;Temp;Humidity;BMP_temperature;BMP_pressure;BME280_temperature;BME280_humidity;BME280_pressure;Samples;Min_cycle;Max_cycle;Signal;HPM_P1;HPM_P2
2022/06/29 00:00:10;;;;;;;7.95;1.02;;;19.10;77.70;;;;;;5051341;28;20029;-73
2022/06/29 00:02:36;;;;;;;2.17;1.20;;;19.10;77.80;;;;;;5051390;28;20086;-73
2022/06/29 00:05:04;;;;;;;5.07;1.90;;;19.00;78.20;;;;;;5050848;28;20358;-73
2022/06/29 00:07:29;;;;;;;2.05;1.10;;;19.00;78.40;;;;;;5051280;28;20047;-73
2022/06/29 00:09:55;;;;;;;1.80;1.25;;;18.90;78.50;;;;;;5051534;28;20439;-73
2022/06/29 00:12:21;;;;;;;4.72;1.33;;;18.90;78.60;;;;;;5050843;28;20120;-72
2022/06/29 00:14:46;;;;;;;3.75;1.50;;;18.90;78.80;;;;;;5050633;28;20036;-73
2022/06/29 00:17:12;;;;;;;3.88;1.13;;;18.80;78.60;;;;;;5050859;28;20047;-73
2022/06/29 00:19:39;;;;;;;1.45;0.90;;;18.90;78.80;;;;;;5050729;28;20037;-74
2022/06/29 00:22:06;;;;;;;5.20;1.30;;;18.80;78.70;;;;;;5050609;28;20033;-73
2022/06/29 00:24:32;;;;;;;2.45;1.20;;;18.90;79.30;;;;;;5051272;28;20138;-74
2022/06/29 00:26:59;;;;;;;4.22;1.27;;;18.80;79.20;;;;;;5050904;28;20033;-74
2022/06/29 00:29:24;;;;;;;4.38;1.13;;;18.80;79.40;;;;;;5050800;28;20047;-74
2022/06/29 00:31:50;;;;;;;3.65;1.10;;;18.80;79.30;;;;;;5050587;28;20370;-73
2022/06/29 00:34:16;;;;;;;5.30;1.75;;;18.90;79.40;;;;;;5050226;28;20638;-73
2022/06/29 00:36:42;;;;;;;3.33;1.30;;;18.80;79.30;;;;;;5050862;28;20090;-74
2022/06/29 00:39:08;;;;;;;1.45;1.05;;;18.80;79.40;;;;;;5050468;28;20531;-73
2022/06/29 00:41:41;;;;;;;4.00;1.10;;;18.70;79.10;;;;;;5050229;28;20025;-72
2022/06/29 00:44:09;;;;;;;2.30;1.33;;;18.70;79.30;;;;;;5050282;28;20094;-73
2022/06/29 00:46:40;;;;;;;1.70;1.30;;;18.60;79.70;;;;;;5050403;28;20126;-73
2022/06/29 00:49:06;;;;;;;2.92;1.08;;;18.60;79.60;;;;;;5050340;28;20028;-72
2022/06/29 00:51:34;;;;;;;2.33;1.08;;;18.60;80.10;;;;;;5050361;28;20021;-72
2022/06/29 00:54:03;;;;;;;2.25;1.33;;;18.50;80.30;;;;;;5050064;28;20037;-73
2022/06/29 00:56:31;;;;;;;4.47;1.23;;;18.50;80.00;;;;;;5050058;28;20457;-73
2022/06/29 00:58:58;;;;;;;;;;;18.50;80.00;;;;;;5050401;28;20040;-73
2022/06/29 01:01:25;;;;;;;3.70;1.90;;;18.50;79.40;;;;;;5049978;28;20372;-73
2022/06/29 01:03:51;;;;;;;3.97;1.33;;;18.50;79.80;;;;;;5050342;28;20401;-74
2022/06/29 01:06:17;;;;;;;3.17;1.42;;;18.50;79.80;;;;;;5048736;28;20041;-73
2022/06/29 01:08:42;;;;;;;2.22;1.00;;;18.40;79.80;;;;;;5050162;28;20037;-75
2022/06/29 01:11:08;;;;;;;2.38;1.17;;;18.40;79.90;;;;;;5050131;28;20040;-73
2022/06/29 01:13:34;;;;;;;4.07;1.45;;;18.40;79.80;;;;;;5048892;28;20037;-73
2022/06/29 01:15:59;;;;;;;2.65;1.63;;;18.30;80.20;;;;;;5049111;28;20469;-73
2022/06/29 01:18:25;;;;;;;2.03;1.15;;;18.40;80.60;;;;;;5049834;28;20043;-73
2022/06/29 01:20:51;;;;;;;3.28;1.15;;;18.30;80.70;;;;;;5049773;28;20467;-73
2022/06/29 01:23:16;;;;;;;10.15;1.80;;;18.30;80.40;;;;;;5049795;28;20421;-73
2022/06/29 01:25:42;;;;;;;3.60;1.83;;;18.30;80.50;;;;;;5049839;28;20475;-73
2022/06/29 01:28:07;;;;;;;2.20;1.23;;;18.30;80.20;;;;;;5049719;28;20053;-73
2022/06/29 01:30:33;;;;;;;2.60;1.38;;;18.20;80.00;;;;;;5050643;28;20087;-74
2022/06/29 01:32:59;;;;;;;6.47;1.40;;;18.20;80.50;;;;;;5050101;28;20548;-73
2022/06/29 01:35:24;;;;;;;3.70;1.30;;;18.10;80.10;;;;;;5054787;28;20024;-73
2022/06/29 01:37:50;;;;;;;4.15;1.42;;;18.20;80.50;;;;;;5069875;28;20473;-73
2022/06/29 01:40:16;;;;;;;1.40;1.17;;;18.10;80.60;;;;;;5069712;28;20021;-71
2022/06/29 01:42:41;;;;;;;2.63;1.30;;;18.10;81.00;;;;;;5069124;28;20085;-74
2022/06/29 01:45:08;;;;;;;2.00;1.08;;;18.00;81.20;;;;;;5069788;28;20063;-73
2022/06/29 01:47:34;;;;;;;1.85;1.27;;;18.00;81.40;;;;;;5069764;28;20028;-73
2022/06/29 01:49:59;;;;;;;3.53;1.30;;;17.90;81.50;;;;;;5070077;28;20519;-73
2022/06/29 01:52:25;;;;;;;5.07;1.30;;;18.00;81.50;;;;;;5068344;28;20041;-74
2022/06/29 01:54:51;;;;;;;2.53;2.03;;;17.90;81.70;;;;;;5069992;28;20082;-73
2022/06/29 01:57:16;;;;;;;1.20;1.10;;;17.90;81.80;;;;;;5068678;28;20089;-74
2022/06/29 01:59:43;;;;;;;5.03;1.55;;;17.90;81.50;;;;;;5069663;28;20056;-72
2022/06/29 02:02:09;;;;;;;2.58;1.15;;;17.80;81.80;;;;;;5069657;28;20041;-73
2022/06/29 02:04:34;;;;;;;9.98;1.77;;;17.80;81.80;;;;;;5069563;28;20044;-72
2022/06/29 02:07:00;;;;;;;3.15;1.40;;;17.80;82.00;;;;;;5068806;28;20037;-72
2022/06/29 02:09:26;;;;;;;1.38;1.10;;;17.80;82.10;;;;;;5069677;28;20529;-73
2022/06/29 02:11:52;;;;;;;1.65;0.93;;;17.80;82.40;;;;;;5069816;28;20359;-73
2022/06/29 02:14:18;;;;;;;5.28;1.45;;;17.70;82.50;;;;;;5069377;28;20051;-73
2022/06/29 02:16:43;;;;;;;2.45;1.60;;;17.70;82.80;;;;;;5070248;28;20047;-73
2022/06/29 02:19:09;;;;;;;6.28;1.98;;;17.70;82.60;;;;;;5073050;28;20099;-74
2022/06/29 02:21:35;;;;;;;2.17;1.23;;;17.60;83.10;;;;;;5072264;28;20024;-73
2022/06/29 02:24:00;;;;;;;1.48;1.35;;;17.50;83.10;;;;;;5072781;28;20035;-73
2022/06/29 02:26:26;;;;;;;2.38;1.35;;;17.50;83.40;;;;;;5072843;28;20043;-73
2022/06/29 02:28:52;;;;;;;4.28;1.45;;;17.50;83.70;;;;;;5072707;28;20036;-73
2022/06/29 02:36:53;;;;;;;2.38;1.40;;;17.50;84.20;;;;;;5041142;28;20381;-72
2022/06/29 02:39:20;;;;;;;1.73;1.48;;;17.50;84.50;;;;;;5072722;28;20120;-72
2022/06/29 02:41:46;;;;;;;2.70;1.50;;;17.40;84.50;;;;;;5072988;28;20031;-73
2022/06/29 02:44:11;;;;;;;3.65;1.73;;;17.50;84.70;;;;;;5072706;28;20037;-72
2022/06/29 02:46:37;;;;;;;2.78;1.60;;;17.50;84.50;;;;;;5072534;28;20033;-74
2022/06/29 02:49:02;;;;;;;4.03;2.25;;;17.60;84.50;;;;;;5073005;28;20020;-73
2022/06/29 02:51:28;;;;;;;2.35;1.50;;;17.60;84.60;;;;;;5072717;28;20125;-74
2022/06/29 02:53:54;;;;;;;5.53;1.90;;;17.50;84.80;;;;;;5072320;28;20458;-73
2022/06/29 02:56:19;;;;;;;8.68;2.13;;;17.40;85.30;;;;;;5072400;28;20124;-73
2022/06/29 02:58:45;;;;;;;3.55;1.50;;;17.50;85.50;;;;;;5072157;28;20473;-73
2022/06/29 03:01:11;;;;;;;2.78;1.70;;;17.50;85.40;;;;;;5072253;28;20045;-73
2022/06/29 03:03:36;;;;;;;5.93;1.67;;;17.50;85.40;;;;;;5072517;28;20021;-73
2022/06/29 03:06:02;;;;;;;1.73;1.38;;;17.40;85.30;;;;;;5072328;28;20585;-73
2022/06/29 03:08:28;;;;;;;3.13;1.67;;;17.30;86.00;;;;;;5071834;28;20044;-73
2022/06/29 03:10:53;;;;;;;2.67;1.70;;;17.30;86.20;;;;;;5071876;28;20446;-74
2022/06/29 03:13:19;;;;;;;3.70;1.60;;;17.40;86.10;;;;;;5072006;28;20094;-73
2022/06/29 03:15:45;;;;;;;2.72;1.40;;;17.40;86.00;;;;;;5073307;28;20406;-73
2022/06/29 03:18:10;;;;;;;1.80;1.30;;;17.50;85.60;;;;;;5071743;28;20044;-73
2022/06/29 03:20:36;;;;;;;4.03;1.73;;;17.50;85.60;;;;;;5072282;28;20508;-73
2022/06/29 03:23:02;;;;;;;3.15;2.00;;;17.50;85.70;;;;;;5072092;28;20032;-72
2022/06/29 03:25:27;;;;;;;4.53;1.63;;;17.60;86.00;;;;;;5072210;28;20106;-72
2022/06/29 03:27:53;;;;;;;2.28;1.60;;;17.50;86.40;;;;;;5072145;28;20028;-74
2022/06/29 03:30:19;;;;;;;6.03;1.52;;;17.50;86.70;;;;;;5071973;28;20048;-74
2022/06/29 03:32:45;;;;;;;2.72;1.85;;;17.50;86.70;;;;;;5071868;28;20039;-72
2022/06/29 03:35:11;;;;;;;3.03;1.88;;;17.50;86.70;;;;;;5072008;28;20028;-72
2022/06/29 03:37:36;;;;;;;3.97;1.65;;;17.50;86.40;;;;;;5070671;28;20044;-73
2022/06/29 03:40:03;;;;;;;2.95;1.52;;;17.50;86.50;;;;;;5072091;28;20447;-73
2022/06/29 03:42:29;;;;;;;5.60;1.90;;;17.50;86.90;;;;;;5070961;28;20043;-73
2022/06/29 03:44:55;;;;;;;3.60;1.70;;;17.50;87.20;;;;;;5070714;28;20367;-73
2022/06/29 03:47:22;;;;;;;2.50;1.67;;;17.50;87.10;;;;;;5071771;28;20029;-73
2022/06/29 03:49:48;;;;;;;7.90;2.63;;;17.60;87.40;;;;;;5071205;28;20519;-73
2022/06/29 03:52:13;;;;;;;2.20;1.55;;;17.60;87.00;;;;;;5071384;28;20123;-73
2022/06/29 03:54:39;;;;;;;5.22;2.00;;;17.70;87.30;;;;;;5071761;28;20029;-73
2022/06/29 03:57:05;;;;;;;4.97;2.85;;;17.70;87.00;;;;;;5071678;28;20059;-74
2022/06/29 03:59:31;;;;;;;4.63;2.08;;;17.80;87.10;;;;;;5070686;28;20062;-73
2022/06/29 04:01:56;;;;;;;3.25;1.85;;;17.70;87.60;;;;;;5071730;28;20025;-74
2022/06/29 04:04:22;;;;;;;3.35;2.03;;;17.70;87.90;;;;;;5071219;28;20430;-74
2022/06/29 04:06:48;;;;;;;8.95;2.28;;;17.90;87.50;;;;;;5072349;28;20028;-73
2022/06/29 04:09:13;;;;;;;8.50;3.22;;;17.80;87.10;;;;;;5071358;28;20374;-72
2022/06/29 04:11:54;;;;;;;4.85;2.03;;;17.90;87.60;;;;;;5070342;28;20379;-74
2022/06/29 04:14:23;;;;;;;3.97;2.20;;;17.90;87.40;;;;;;5071028;28;20535;-74
2022/06/29 04:16:49;;;;;;;4.60;1.88;;;18.00;87.50;;;;;;5071467;28;20104;-74
2022/06/29 04:19:15;;;;;;;3.13;2.00;;;18.00;87.60;;;;;;5071220;28;20089;-74
2022/06/29 04:21:41;;;;;;;3.42;2.03;;;18.00;87.60;;;;;;5071615;28;20032;-74
2022/06/29 04:24:07;;;;;;;7.47;2.05;;;18.00;87.90;;;;;;5071442;28;20438;-74
2022/06/29 04:26:32;;;;;;;3.28;2.17;;;18.00;88.00;;;;;;5071664;28;20024;-73
2022/06/29 04:28:59;;;;;;;3.35;2.10;;;18.00;88.10;;;;;;5071000;28;20028;-73
2022/06/29 04:31:25;;;;;;;2.92;1.92;;;18.10;88.10;;;;;;5071300;28;20158;-73
2022/06/29 04:33:50;;;;;;;6.63;1.85;;;18.10;88.40;;;;;;5071342;28;20107;-73
2022/06/29 04:36:19;;;;;;;5.70;2.40;;;18.10;88.40;;;;;;5070838;28;20253;-73
2022/06/29 04:38:46;;;;;;;6.00;2.03;;;18.10;88.60;;;;;;5070837;28;20090;-72
2022/06/29 04:41:21;;;;;;;3.38;1.98;;;18.20;88.80;;;;;;5070194;28;20056;-73
2022/06/29 04:43:48;;;;;;;8.50;2.25;;;18.20;88.50;;;;;;5071007;28;20024;-73
2022/06/29 04:46:19;;;;;;;3.95;2.40;;;18.20;88.60;;;;;;5071167;28;20047;-73
2022/06/29 04:48:58;;;;;;;6.72;2.15;;;18.30;88.50;;;;;;5070919;28;20119;-74
2022/06/29 04:51:25;;;;;;;5.68;2.25;;;18.30;88.80;;;;;;5071222;28;20029;-74
2022/06/29 04:53:56;;;;;;;10.43;2.33;;;18.40;88.50;;;;;;5070621;28;20048;-73
2022/06/29 04:56:34;;;;;;;6.97;2.50;;;18.40;88.60;;;;;;5069658;28;20059;-74
2022/06/29 04:59:00;;;;;;;5.63;2.40;;;18.50;88.50;;;;;;5069812;28;20037;-74
2022/06/29 05:01:28;;;;;;;10.18;2.30;;;18.50;88.40;;;;;;5070697;28;20477;-74
2022/06/29 05:03:55;;;;;;;10.15;2.38;;;18.50;88.50;;;;;;5071545;28;20119;-73
2022/06/29 05:06:32;;;;;;;5.70;2.22;;;18.60;88.60;;;;;;5070569;28;20029;-72
2022/06/29 05:08:58;;;;;;;5.13;2.70;;;18.60;88.50;;;;;;5070429;28;20295;-73
2022/06/29 05:11:25;;;;;;;6.57;2.03;;;18.70;88.30;;;;;;5069362;28;20155;-73
2022/06/29 05:13:51;;;;;;;11.35;2.15;;;18.80;88.20;;;;;;5069046;28;20056;-69
2022/06/29 05:16:26;;;;;;;9.48;2.55;;;18.80;88.50;;;;;;5068800;28;20434;-69
2022/06/29 05:18:51;;;;;;;8.13;2.30;;;18.90;88.60;;;;;;5070692;28;20030;-72
2022/06/29 05:21:20;;;;;;;7.82;2.60;;;19.00;88.70;;;;;;5069106;28;20051;-68
2022/06/29 05:23:47;;;;;;;6.93;2.63;;;19.10;89.00;;;;;;5070080;28;20040;-69
2022/06/29 05:26:19;;;;;;;13.43;2.95;;;19.10;88.30;;;;;;5068785;28;20452;-69
2022/06/29 05:28:45;;;;;;;9.13;2.47;;;19.30;87.90;;;;;;5069640;28;20037;-68
2022/06/29 05:31:31;;;;;;;7.68;2.55;;;19.40;88.20;;;;;;5069812;28;20343;-68
2022/06/29 05:33:56;;;;;;;9.27;2.78;;;19.50;87.10;;;;;;5070048;28;20013;-69
2022/06/29 05:36:28;;;;;;;11.75;3.30;;;19.50;87.10;;;;;;5069774;28;20103;-68
2022/06/29 05:38:54;;;;;;;6.55;2.40;;;19.70;86.60;;;;;;5069686;28;20035;-68
2022/06/29 05:41:29;;;;;;;10.50;2.70;;;19.70;86.60;;;;;;5069896;28;20081;-68
2022/06/29 05:43:54;;;;;;;12.55;2.58;;;19.80;86.00;;;;;;5069695;28;20074;-67
2022/06/29 05:46:22;;;;;;;4.63;1.98;;;19.90;86.10;;;;;;5070116;28;20114;-69
2022/06/29 05:48:48;;;;;;;5.70;2.45;;;20.00;85.70;;;;;;5068828;28;20018;-68
2022/06/29 05:51:26;;;;;;;12.40;4.10;;;20.10;85.30;;;;;;5068673;28;20404;-69
2022/06/29 05:53:51;;;;;;;;;;;20.30;86.10;;;;;;5072542;28;20059;-69
2022/06/29 05:56:20;;;;;;;6.80;2.45;;;20.40;85.40;;;;;;5073581;28;19909;-71
2022/06/29 05:58:46;;;;;;;12.88;2.88;;;20.50;84.90;;;;;;5073652;28;20043;-72
2022/06/29 06:01:30;;;;;;;10.90;2.33;;;20.50;83.80;;;;;;5072349;28;20039;-71
2022/06/29 06:03:55;;;;;;;9.63;2.30;;;20.60;83.60;;;;;;5073767;28;20106;-72
2022/06/29 06:06:27;;;;;;;5.22;2.53;;;20.70;83.50;;;;;;5073516;28;20099;-71
2022/06/29 06:08:53;;;;;;;8.82;2.15;;;20.70;83.60;;;;;;5072630;28;20059;-72
2022/06/29 06:11:25;;;;;;;7.30;2.15;;;20.70;83.30;;;;;;5073267;28;20431;-71
2022/06/29 06:13:50;;;;;;;13.43;2.90;;;20.60;82.70;;;;;;5073162;28;20067;-71
2022/06/29 06:16:19;;;;;;;4.55;2.42;;;20.60;82.80;;;;;;5073176;28;20025;-72
2022/06/29 06:18:45;;;;;;;9.25;3.40;;;20.60;82.70;;;;;;5073859;28;20024;-71
2022/06/29 06:21:14;;;;;;;12.63;4.47;;;20.60;82.80;;;;;;5072043;28;20044;-71
2022/06/29 06:23:40;;;;;;;10.38;2.95;;;20.60;83.20;;;;;;5071650;28;20051;-71
2022/06/29 06:26:06;;;;;;;8.02;3.03;;;20.70;83.50;;;;;;5073206;28;20032;-71
2022/06/29 06:28:31;;;;;;;6.97;3.00;;;20.70;83.70;;;;;;5071931;28;20249;-71
2022/06/29 06:30:57;;;;;;;8.25;2.88;;;20.80;83.90;;;;;;5073495;28;20094;-71
2022/06/29 06:33:23;;;;;;;9.68;2.63;;;21.00;84.10;;;;;;5072090;28;20098;-72
2022/06/29 06:35:49;;;;;;;5.88;2.20;;;21.00;84.00;;;;;;5073170;28;20034;-71
2022/06/29 06:38:15;;;;;;;7.13;3.03;;;21.10;84.20;;;;;;5073164;28;20044;-71
2022/06/29 06:43:26;;;;;;;7.80;3.40;;;21.40;84.60;;;;;;5073754;28;20052;-72
2022/06/29 06:45:51;;;;;;;4.50;2.83;;;21.40;84.60;;;;;;5072298;28;20064;-71
2022/06/29 06:48:17;;;;;;;5.00;3.17;;;21.50;84.70;;;;;;5071557;28;20103;-71
2022/06/29 06:50:43;;;;;;;13.65;3.40;;;21.50;84.50;;;;;;5072783;28;20304;-71
2022/06/29 06:53:09;;;;;;;9.75;3.35;;;21.60;84.70;;;;;;5071520;28;20480;-71
2022/06/29 06:55:35;;;;;;;9.18;3.00;;;21.60;84.70;;;;;;5074267;28;20369;-71
2022/06/29 06:58:01;;;;;;;8.05;3.85;;;21.70;85.00;;;;;;5073500;28;20447;-70
2022/06/29 07:00:28;;;;;;;6.55;3.08;;;21.80;85.10;;;;;;5072613;28;20035;-71
2022/06/29 07:02:54;;;;;;;7.03;2.83;;;21.90;85.10;;;;;;5072295;28;20094;-70
2022/06/29 07:05:20;;;;;;;9.18;2.78;;;22.00;85.20;;;;;;5072728;28;20029;-70
2022/06/29 07:07:46;;;;;;;4.88;2.90;;;22.10;85.20;;;;;;5072683;28;20454;-70
2022/06/29 07:10:11;;;;;;;4.80;2.60;;;22.30;85.80;;;;;;5071544;28;20021;-70
2022/06/29 07:12:37;;;;;;;5.15;2.85;;;22.30;85.80;;;;;;5073077;28;20039;-70
2022/06/29 07:15:04;;;;;;;8.15;2.75;;;22.40;85.30;;;;;;5072727;28;20033;-70
2022/06/29 07:17:29;;;;;;;3.05;2.33;;;22.60;85.40;;;;;;5072300;28;20462;-70
2022/06/29 07:19:55;;;;;;;8.80;2.70;;;22.60;85.20;;;;;;5072341;28;20032;-70
2022/06/29 07:22:21;;;;;;;5.95;2.72;;;22.70;85.40;;;;;;5072052;28;20063;-71
2022/06/29 07:24:46;;;;;;;9.35;4.25;;;22.80;85.40;;;;;;5073042;28;20019;-71
2022/06/29 07:27:13;;;;;;;7.18;3.45;;;23.00;85.50;;;;;;5072627;28;20033;-70
2022/06/29 07:29:39;;;;;;;4.30;2.67;;;23.10;85.30;;;;;;5071798;28;20044;-70
2022/06/29 07:32:05;;;;;;;5.85;2.53;;;23.20;85.30;;;;;;5072784;28;20032;-70
2022/06/29 07:34:30;;;;;;;14.77;3.38;;;23.30;85.20;;;;;;5072545;28;20058;-70
2022/06/29 07:36:56;;;;;;;5.78;2.75;;;23.40;84.80;;;;;;5072745;28;20094;-70
2022/06/29 07:39:22;;;;;;;3.53;2.55;;;23.40;85.00;;;;;;5071940;28;20358;-70
2022/06/29 07:41:47;;;;;;;4.65;2.80;;;23.60;85.00;;;;;;5072221;28;20455;-70
2022/06/29 07:44:13;;;;;;;3.72;3.20;;;23.60;85.00;;;;;;5071704;28;20036;-71
2022/06/29 07:46:39;;;;;;;2.97;2.67;;;23.60;85.00;;;;;;5072101;28;20475;-70
2022/06/29 07:49:04;;;;;;;5.10;2.85;;;23.70;85.30;;;;;;5072427;28;20086;-71
2022/06/29 07:51:30;;;;;;;7.50;2.95;;;23.70;85.50;;;;;;5072870;28;20038;-70
2022/06/29 07:53:56;;;;;;;9.95;3.08;;;23.90;85.40;;;;;;5070871;28;20061;-70
2022/06/29 07:56:25;;;;;;;4.75;2.50;;;23.90;85.30;;;;;;5072509;28;20043;-70
2022/06/29 07:58:51;;;;;;;7.10;2.65;;;24.00;85.10;;;;;;5071672;28;20063;-69
2022/06/29 08:01:22;;;;;;;8.77;2.85;;;24.00;85.10;;;;;;5071295;28;20048;-70
2022/06/29 08:03:48;;;;;;;5.47;2.85;;;24.20;85.30;;;;;;5070463;28;20036;-70
2022/06/29 08:06:51;;;;;;;8.57;2.75;;;24.40;84.70;;;;;;5072152;28;20040;-69
2022/06/29 08:09:16;;;;;;;3.70;2.83;;;24.50;84.00;;;;;;5072402;28;20208;-70
2022/06/29 08:11:42;;;;;;;6.20;2.63;;;24.70;83.20;;;;;;5070656;28;20486;-70
2022/06/29 08:14:08;;;;;;;2.90;2.58;;;24.90;82.60;;;;;;5071118;28;20177;-70
2022/06/29 08:16:36;;;;;;;3.13;2.25;;;25.10;82.10;;;;;;5071631;28;20128;-70
2022/06/29 08:19:02;;;;;;;5.97;2.80;;;25.30;82.10;;;;;;5072712;28;20455;-71
2022/06/29 08:21:32;;;;;;;6.53;2.50;;;25.30;81.00;;;;;;5070919;28;20139;-69
2022/06/29 08:23:57;;;;;;;5.85;2.65;;;25.40;81.00;;;;;;5071378;28;20055;-70
2022/06/29 08:26:32;;;;;;;3.67;2.60;;;25.40;80.60;;;;;;5070838;28;20033;-69
2022/06/29 08:28:58;;;;;;;5.55;2.40;;;25.40;81.00;;;;;;5069397;28;20067;-71
2022/06/29 08:31:33;;;;;;;6.75;2.67;;;25.40;81.00;;;;;;5070981;28;20040;-70
2022/06/29 08:34:00;;;;;;;4.47;2.45;;;25.40;80.60;;;;;;5071290;28;20032;-70
2022/06/29 08:36:29;;;;;;;5.25;2.92;;;25.50;80.80;;;;;;5070019;28;20028;-69
2022/06/29 08:38:55;;;;;;;4.68;2.40;;;25.60;81.10;;;;;;5070796;28;20025;-70
2022/06/29 08:41:26;;;;;;;5.78;2.50;;;26.00;80.30;;;;;;5071177;28;20032;-70
2022/06/29 08:43:52;;;;;;;3.70;2.33;;;26.00;79.90;;;;;;5053321;28;20056;-70
2022/06/29 08:46:24;;;;;;;3.58;2.25;;;26.10;80.00;;;;;;5070716;28;20049;-71
2022/06/29 08:48:50;;;;;;;5.07;2.78;;;26.20;80.00;;;;;;5071848;28;20027;-72
2022/06/29 08:51:39;;;;;;;6.07;3.40;;;26.40;78.70;;;;;;5070124;28;20025;-71
2022/06/29 08:54:07;;;;;;;13.02;6.43;;;26.40;77.50;;;;;;5031745;28;20471;-70
2022/06/29 08:56:35;;;;;;;9.32;4.55;;;26.70;77.40;;;;;;5031399;28;20060;-71
2022/06/29 08:59:03;;;;;;;9.20;3.70;;;27.10;76.30;;;;;;5029518;28;20026;-71
2022/06/29 09:01:29;;;;;;;10.82;2.72;;;27.70;75.60;;;;;;5031389;28;20037;-72
2022/06/29 09:03:55;;;;;;;6.00;2.83;;;27.80;73.20;;;;;;5031780;28;20049;-72
2022/06/29 09:06:27;;;;;;;6.38;2.40;;;27.70;73.00;;;;;;5030693;28;20030;-72
2022/06/29 09:08:53;;;;;;;4.70;2.20;;;28.30;71.80;;;;;;5030790;28;20448;-71
2022/06/29 09:11:29;;;;;;;3.28;2.15;;;28.80;71.10;;;;;;5030464;28;20060;-72
2022/06/29 09:14:14;;;;;;;4.72;2.50;;;29.00;70.10;;;;;;5030681;28;20053;-73
2022/06/29 09:16:49;;;;;;;5.50;2.70;;;29.20;68.90;;;;;;5030539;28;20033;-75
2022/06/29 09:19:19;;;;;;;3.45;2.67;;;28.80;68.40;;;;;;5030779;28;20726;-73
2022/06/29 09:21:48;;;;;;;6.78;2.53;;;28.70;68.90;;;;;;5031470;28;20515;-74
2022/06/29 09:24:19;;;;;;;3.67;2.40;;;28.50;69.30;;;;;;5030674;28;20026;-73
2022/06/29 09:26:52;;;;;;;4.25;2.28;;;28.30;70.20;;;;;;5033154;28;20371;-74
2022/06/29 09:29:20;;;;;;;4.20;2.90;;;28.10;69.90;;;;;;5035133;28;20037;-74
2022/06/29 09:32:04;;;;;;;5.03;2.67;;;28.00;68.90;;;;;;5033579;28;20500;-75
2022/06/29 09:34:33;;;;;;;7.50;3.58;;;27.70;69.40;;;;;;5034244;28;20103;-75
2022/06/29 09:37:01;;;;;;;4.65;3.15;;;27.70;70.90;;;;;;5035221;28;20079;-74
2022/06/29 09:39:50;;;;;;;3.45;3.08;;;27.60;70.50;;;;;;5034013;28;20475;-74
2022/06/29 09:42:18;;;;;;;6.65;3.63;;;27.40;70.90;;;;;;5034809;28;20033;-76
2022/06/29 09:44:44;;;;;;;;;;;27.40;70.20;;;;;;5034915;28;20476;-73
2022/06/29 09:47:15;;;;;;;3.28;2.80;;;27.30;70.50;;;;;;5034544;28;20247;-75
2022/06/29 09:49:43;;;;;;;5.88;2.80;;;27.30;70.50;;;;;;5034402;28;20049;-74
2022/06/29 09:52:10;;;;;;;5.38;2.75;;;27.30;70.60;;;;;;5042361;28;20052;-74
2022/06/29 09:54:39;;;;;;;4.30;2.37;;;27.30;70.40;;;;;;5074404;28;20021;-75
2022/06/29 09:57:06;;;;;;;7.90;2.67;;;27.40;70.70;;;;;;5072916;28;20441;-75
2022/06/29 10:02:43;;;;;;;7.00;2.60;;;27.30;69.30;;;;;;5073753;28;20059;-74
2022/06/29 10:05:09;;;;;;;4.93;2.35;;;27.20;70.00;;;;;;5073630;28;20142;-73
2022/06/29 10:07:37;;;;;;;2.85;2.40;;;27.20;69.30;;;;;;5073795;28;20027;-73
2022/06/29 10:10:06;;;;;;;4.57;2.58;;;27.20;69.10;;;;;;5073423;28;20052;-75
2022/06/29 10:15:56;;;;;;;5.60;2.55;;;27.20;69.80;;;;;;5073293;28;20040;-74
2022/06/29 10:18:49;;;;;;;8.15;2.75;;;27.20;69.20;;;;;;5073235;28;20142;-73
2022/06/29 10:21:32;;;;;;;4.40;2.80;;;27.30;69.10;;;;;;5073561;28;20028;-73
2022/06/29 10:23:59;;;;;;;6.00;2.60;;;27.30;70.30;;;;;;5073218;28;20101;-73
2022/06/29 10:26:28;;;;;;;5.97;2.63;;;27.40;69.40;;;;;;5073405;28;20439;-75
2022/06/29 10:29:17;;;;;;;6.53;3.20;;;27.40;69.50;;;;;;5072844;28;20040;-73
2022/06/29 10:32:06;;;;;;;5.82;2.55;;;27.60;70.40;;;;;;5072613;28;20143;-74
2022/06/29 10:34:37;;;;;;;3.10;2.70;;;27.70;69.90;;;;;;5061206;28;20458;-76
2022/06/29 10:37:03;;;;;;;6.38;2.90;;;28.00;69.90;;;;;;5072735;28;20329;-72
2022/06/29 10:39:48;;;;;;;4.15;2.83;;;28.10;69.60;;;;;;5072962;28;20025;-84
2022/06/29 10:45:14;;;;;;;3.63;2.80;;;28.40;69.50;;;;;;5072672;28;20098;-74
2022/06/29 10:48:08;;;;;;;5.65;2.75;;;28.50;69.20;;;;;;5072958;28;20111;-74
2022/06/29 10:50:38;;;;;;;5.82;3.33;;;28.70;69.10;;;;;;5071399;28;20033;-74
2022/06/29 10:53:06;;;;;;;7.95;2.45;;;28.80;68.20;;;;;;5072522;28;20037;-73
2022/06/29 10:55:34;;;;;;;2.83;2.60;;;28.90;68.20;;;;;;5072882;28;20399;-74
2022/06/29 10:58:02;;;;;;;11.20;7.28;;;28.80;67.00;;;;;;5073507;28;20082;-74
2022/06/29 11:00:30;;;;;;;6.10;2.88;;;28.70;66.00;;;;;;5072942;28;20429;-75
2022/06/29 11:02:57;;;;;;;3.90;3.50;;;28.70;66.40;;;;;;5072011;28;20037;-75
2022/06/29 11:05:23;;;;;;;6.15;2.80;;;28.70;66.40;;;;;;5072401;28;20355;-75
2022/06/29 11:13:22;;;;;;;10.90;5.68;;;28.30;68.00;;;;;;5072827;28;20406;-73
2022/06/29 11:15:50;;;;;;;4.85;3.17;;;28.20;68.30;;;;;;5072948;28;20016;-74
2022/06/29 11:18:20;;;;;;;6.13;2.40;;;28.10;67.70;;;;;;5072264;28;20029;-73
2022/06/29 11:20:50;;;;;;;3.33;3.00;;;27.90;68.50;;;;;;5072356;28;20064;-75
2022/06/29 11:23:21;;;;;;;5.40;3.53;;;27.80;67.80;;;;;;5072031;28;20032;-75
2022/06/29 11:25:49;;;;;;;3.33;2.85;;;27.80;69.10;;;;;;5072179;28;20024;-75
2022/06/29 11:28:20;;;;;;;5.03;3.35;;;27.60;70.20;;;;;;5072036;28;20059;-74
2022/06/29 11:31:27;;;;;;;6.13;3.35;;;27.60;70.80;;;;;;5072508;28;20028;-73
2022/06/29 11:33:55;;;;;;;9.88;3.53;;;27.60;71.40;;;;;;5072010;28;20370;-74
2022/06/29 11:36:30;;;;;;;6.43;3.70;;;27.50;71.60;;;;;;5072252;28;20050;-74
2022/06/29 11:39:03;;;;;;;7.55;3.38;;;27.50;71.70;;;;;;5072279;28;20021;-74
2022/06/29 11:44:31;;;;;;;9.18;3.67;;;27.30;72.30;;;;;;5072384;28;20035;-74
2022/06/29 11:46:57;;;;;;;4.43;3.53;;;27.30;72.60;;;;;;5071525;28;20025;-76
2022/06/29 11:49:39;;;;;;;6.40;2.97;;;27.30;73.10;;;;;;5071434;28;20020;-74
2022/06/29 11:52:08;;;;;;;5.88;3.63;;;27.20;73.40;;;;;;5069320;28;20118;-74
2022/06/29 11:54:37;;;;;;;6.30;3.13;;;27.20;73.20;;;;;;5070835;28;20041;-73
2022/06/29 11:57:21;;;;;;;4.95;2.47;;;27.30;72.20;;;;;;5071987;28;20040;-74
2022/06/29 11:59:47;;;;;;;5.18;2.80;;;27.40;70.30;;;;;;5071500;28;20558;-75
2022/06/29 12:02:15;;;;;;;2.97;2.50;;;27.40;70.00;;;;;;5071343;28;20028;-73
2022/06/29 12:04:43;;;;;;;5.00;3.05;;;27.50;70.30;;;;;;5071107;28;20024;-72
2022/06/29 12:07:11;;;;;;;5.22;2.58;;;27.40;70.00;;;;;;5071445;28;20036;-74
2022/06/29 12:09:38;;;;;;;3.90;2.17;;;27.30;70.10;;;;;;5072222;28;20024;-75
2022/06/29 12:12:06;;;;;;;2.50;2.00;;;27.30;69.50;;;;;;5070668;28;20029;-73
2022/06/29 12:14:32;;;;;;;3.03;2.38;;;27.50;70.60;;;;;;5071214;28;20044;-75
2022/06/29 12:16:58;;;;;;;5.63;2.38;;;27.50;70.00;;;;;;5071337;28;20109;-73
2022/06/29 12:19:24;;;;;;;4.35;2.10;;;27.60;69.80;;;;;;5071030;28;20123;-74
2022/06/29 12:21:50;;;;;;;2.80;2.55;;;27.60;69.60;;;;;;5071139;28;20108;-75
2022/06/29 12:24:17;;;;;;;3.53;2.05;;;27.60;68.60;;;;;;5071818;28;20457;-75
2022/06/29 12:26:43;;;;;;;3.15;2.25;;;27.70;68.70;;;;;;5071103;28;20131;-75
2022/06/29 12:29:08;;;;;;;5.00;1.88;;;27.80;68.30;;;;;;5070911;28;20043;-75
2022/06/29 12:31:37;;;;;;;8.77;2.33;;;27.90;69.10;;;;;;5070819;28;20466;-74
2022/06/29 12:34:04;;;;;;;2.80;2.05;;;27.70;68.10;;;;;;5070803;28;20381;-73
2022/06/29 12:36:30;;;;;;;5.28;2.15;;;27.70;68.10;;;;;;5071188;28;20020;-74
2022/06/29 12:38:56;;;;;;;7.75;2.05;;;27.70;67.90;;;;;;5070413;28;20347;-75
2022/06/29 12:41:22;;;;;;;2.28;1.92;;;27.60;69.10;;;;;;5069544;28;20025;-74
2022/06/29 12:43:47;;;;;;;2.78;2.00;;;27.40;68.70;;;;;;5069087;28;20424;-74
2022/06/29 12:46:32;;;;;;;4.20;1.92;;;27.30;68.80;;;;;;5071250;28;20032;-73
2022/06/29 12:48:59;;;;;;;2.55;1.98;;;27.20;69.30;;;;;;5071024;28;20025;-74
2022/06/29 12:51:26;;;;;;;6.10;2.10;;;27.30;69.10;;;;;;5070856;28;20114;-75
2022/06/29 12:53:51;;;;;;;3.53;1.70;;;27.20;69.20;;;;;;5070302;28;20045;-73
2022/06/29 12:56:29;;;;;;;1.85;1.42;;;27.10;67.00;;;;;;5070710;28;20371;-72
2022/06/29 12:58:55;;;;;;;2.80;1.33;;;27.00;65.50;;;;;;5070979;28;20025;-74
2022/06/29 13:02:01;;;;;;;1.85;1.40;;;26.80;65.20;;;;;;5070315;28;20081;-74
2022/06/29 13:04:27;;;;;;;1.57;1.27;;;26.80;65.20;;;;;;5070323;28;20082;-75
2022/06/29 13:07:26;;;;;;;2.75;1.67;;;26.90;65.00;;;;;;5070854;28;20060;-73
2022/06/29 13:09:55;;;;;;;2.20;1.48;;;26.90;65.70;;;;;;5070550;28;20417;-74
2022/06/29 13:12:21;;;;;;;1.60;1.48;;;27.00;65.60;;;;;;5070341;28;20476;-74
2022/06/29 13:18:10;;;;;;;2.75;1.60;;;27.10;66.50;;;;;;5070341;28;20039;-72
2022/06/29 13:20:36;;;;;;;3.00;1.92;;;27.20;66.60;;;;;;5070151;28;20021;-72
2022/06/29 13:23:01;;;;;;;5.38;1.85;;;27.10;66.90;;;;;;5070334;28;20032;-72